sensor_id;sensor_type;location;lat;lon;timestamp;P1;durP1;ratioP1;P2;durP2;ratioP2
64684;SDS011;51109;47.414;18.954;2024-01-15T00:00:41;83.53;;;39.72;;
64684;SDS011;51109;47.414;18.954;2024-01-15T00:03:07;84.07;;;38.13;;
64684;SDS011;51109;47.414;18.954;2024-01-15T00:05:34;85.78;;;40.58;;
64684;SDS011;51109;47.414;18.954;2024-01-15T00:08:00;92.30;;;39.80;;
64684;SDS011;51109;47.414;18.954;2024-01-15T00:10:26;85.43;;;39.65;;
64684;SDS011;51109;47.414;18.954;2024-01-15T00:12:52;83.85;;;39.92;;
64684;SDS011;51109;47.414;18.954;2024-01-15T00:15:17;87.38;;;40.33;;
64684;SDS011;51109;47.414;18.954;2024-01-15T00:17:43;93.15;;;40.22;;
64684;SDS011;51109;47.414;18.954;2024-01-15T00:20:10;86.18;;;40.30;;
64684;SDS011;51109;47.414;18.954;2024-01-15T00:22:36;89.20;;;38.85;;
64684;SDS011;51109;47.414;18.954;2024-01-15T00:25:02;85.60;;;39.15;;
64684;SDS011;51109;47.414;18.954;2024-01-15T00:27:28;89.32;;;39.83;;
64684;SDS011;51109;47.414;18.954;2024-01-15T00:29:54;84.82;;;39.40;;
64684;SDS011;51109;47.414;18.954;2024-01-15T00:32:19;85.05;;;38.97;;
64684;SDS011;51109;47.414;18.954;2024-01-15T00:34:46;85.00;;;37.97;;
64684;SDS011;51109;47.414;18.954;2024-01-15T00:37:11;80.75;;;35.67;;
64684;SDS011;51109;47.414;18.954;2024-01-15T00:39:37;80.50;;;36.70;;
64684;SDS011;51109;47.414;18.954;2024-01-15T00:42:03;85.72;;;38.97;;
64684;SDS011;51109;47.414;18.954;2024-01-15T00:44:29;87.82;;;41.28;;
64684;SDS011;51109;47.414;18.954;2024-01-15T00:46:55;94.07;;;40.28;;
64684;SDS011;51109;47.414;18.954;2024-01-15T00:49:21;85.65;;;38.90;;
64684;SDS011;51109;47.414;18.954;2024-01-15T00:51:47;85.65;;;40.47;;
64684;SDS011;51109;47.414;18.954;2024-01-15T00:54:12;92.60;;;41.53;;
64684;SDS011;51109;47.414;18.954;2024-01-15T00:56:38;95.38;;;43.13;;
64684;SDS011;51109;47.414;18.954;2024-01-15T00:59:04;98.30;;;44.47;;
64684;SDS011;51109;47.414;18.954;2024-01-15T01:01:30;107.50;;;47.25;;
64684;SDS011;51109;47.414;18.954;2024-01-15T01:03:56;111.35;;;47.85;;
64684;SDS011;51109;47.414;18.954;2024-01-15T01:06:22;102.57;;;45.95;;
64684;SDS011;51109;47.414;18.954;2024-01-15T01:08:48;110.55;;;47.97;;
64684;SDS011;51109;47.414;18.954;2024-01-15T01:11:14;104.10;;;46.53;;
64684;SDS011;51109;47.414;18.954;2024-01-15T01:13:42;99.75;;;47.50;;
64684;SDS011;51109;47.414;18.954;2024-01-15T01:16:08;106.82;;;47.95;;
64684;SDS011;51109;47.414;18.954;2024-01-15T01:18:34;108.30;;;47.17;;
64684;SDS011;51109;47.414;18.954;2024-01-15T01:21:00;115.57;;;47.00;;
64684;SDS011;51109;47.414;18.954;2024-01-15T01:23:26;98.70;;;45.80;;
64684;SDS011;51109;47.414;18.954;2024-01-15T01:25:52;106.57;;;46.25;;
64684;SDS011;51109;47.414;18.954;2024-01-15T01:28:17;95.20;;;43.97;;
64684;SDS011;51109;47.414;18.954;2024-01-15T01:30:43;99.28;;;43.45;;
64684;SDS011;51109;47.414;18.954;2024-01-15T01:33:09;100.68;;;44.40;;
64684;SDS011;51109;47.414;18.954;2024-01-15T01:35:34;101.30;;;42.92;;
64684;SDS011;51109;47.414;18.954;2024-01-15T01:38:01;100.25;;;43.78;;
64684;SDS011;51109;47.414;18.954;2024-01-15T01:40:26;89.57;;;40.30;;
64684;SDS011;51109;47.414;18.954;2024-01-15T01:42:52;92.53;;;42.08;;
64684;SDS011;51109;47.414;18.954;2024-01-15T01:45:18;97.40;;;43.28;;
64684;SDS011;51109;47.414;18.954;2024-01-15T01:47:44;93.78;;;41.50;;
64684;SDS011;51109;47.414;18.954;2024-01-15T01:50:10;96.10;;;41.72;;
64684;SDS011;51109;47.414;18.954;2024-01-15T01:52:37;92.90;;;40.88;;
64684;SDS011;51109;47.414;18.954;2024-01-15T01:55:04;97.93;;;40.10;;
64684;SDS011;51109;47.414;18.954;2024-01-15T01:57:31;88.18;;;41.05;;
64684;SDS011;51109;47.414;18.954;2024-01-15T01:59:59;88.07;;;41.33;;
64684;SDS011;51109;47.414;18.954;2024-01-15T02:02:27;100.70;;;47.97;;
64684;SDS011;51109;47.414;18.954;2024-01-15T02:04:52;99.43;;;43.28;;
64684;SDS011;51109;47.414;18.954;2024-01-15T02:07:18;92.57;;;41.10;;
64684;SDS011;51109;47.414;18.954;2024-01-15T02:09:44;102.03;;;45.00;;
64684;SDS011;51109;47.414;18.954;2024-01-15T02:12:10;82.57;;;40.92;;
64684;SDS011;51109;47.414;18.954;2024-01-15T02:14:36;103.90;;;42.95;;
64684;SDS011;51109;47.414;18.954;2024-01-15T02:17:02;95.22;;;42.08;;
64684;SDS011;51109;47.414;18.954;2024-01-15T02:19:28;95.05;;;41.17;;
64684;SDS011;51109;47.414;18.954;2024-01-15T02:21:54;93.43;;;41.20;;
64684;SDS011;51109;47.414;18.954;2024-01-15T02:24:19;93.30;;;41.72;;
64684;SDS011;51109;47.414;18.954;2024-01-15T02:26:45;91.88;;;40.70;;
64684;SDS011;51109;47.414;18.954;2024-01-15T02:29:11;86.82;;;38.53;;
64684;SDS011;51109;47.414;18.954;2024-01-15T02:31:38;90.75;;;40.92;;
64684;SDS011;51109;47.414;18.954;2024-01-15T02:34:04;79.78;;;36.47;;
64684;SDS011;51109;47.414;18.954;2024-01-15T02:36:30;90.55;;;41.88;;
64684;SDS011;51109;47.414;18.954;2024-01-15T02:38:56;86.68;;;38.95;;
64684;SDS011;51109;47.414;18.954;2024-01-15T02:41:22;90.68;;;39.17;;
64684;SDS011;51109;47.414;18.954;2024-01-15T02:43:48;81.47;;;38.40;;
64684;SDS011;51109;47.414;18.954;2024-01-15T02:46:13;79.85;;;37.88;;
64684;SDS011;51109;47.414;18.954;2024-01-15T02:48:41;85.75;;;38.28;;
64684;SDS011;51109;47.414;18.954;2024-01-15T02:51:07;90.13;;;38.95;;
64684;SDS011;51109;47.414;18.954;2024-01-15T02:53:33;87.28;;;38.30;;
64684;SDS011;51109;47.414;18.954;2024-01-15T02:55:58;91.22;;;39.65;;
64684;SDS011;51109;47.414;18.954;2024-01-15T02:58:24;86.35;;;38.83;;
64684;SDS011;51109;47.414;18.954;2024-01-15T03:00:50;89.35;;;39.25;;
64684;SDS011;51109;47.414;18.954;2024-01-15T03:03:16;85.63;;;36.75;;
64684;SDS011;51109;47.414;18.954;2024-01-15T03:05:42;84.70;;;40.53;;
64684;SDS011;51109;47.414;18.954;2024-01-15T03:08:07;88.85;;;40.22;;
64684;SDS011;51109;47.414;18.954;2024-01-15T03:10:33;82.43;;;39.25;;
64684;SDS011;51109;47.414;18.954;2024-01-15T03:12:59;83.55;;;38.78;;
64684;SDS011;51109;47.414;18.954;2024-01-15T03:15:25;86.72;;;40.47;;
64684;SDS011;51109;47.414;18.954;2024-01-15T03:17:50;85.28;;;39.80;;
64684;SDS011;51109;47.414;18.954;2024-01-15T03:20:16;91.13;;;40.33;;
64684;SDS011;51109;47.414;18.954;2024-01-15T03:22:42;88.47;;;39.00;;
64684;SDS011;51109;47.414;18.954;2024-01-15T03:25:08;91.70;;;39.03;;
64684;SDS011;51109;47.414;18.954;2024-01-15T03:27:34;81.95;;;38.85;;
64684;SDS011;51109;47.414;18.954;2024-01-15T03:30:00;83.55;;;36.72;;
64684;SDS011;51109;47.414;18.954;2024-01-15T03:32:27;84.80;;;39.63;;
64684;SDS011;51109;47.414;18.954;2024-01-15T03:34:53;83.60;;;39.75;;
64684;SDS011;51109;47.414;18.954;2024-01-15T03:37:19;92.10;;;40.63;;
64684;SDS011;51109;47.414;18.954;2024-01-15T03:39:44;88.53;;;38.47;;
64684;SDS011;51109;47.414;18.954;2024-01-15T03:42:11;99.28;;;42.10;;
64684;SDS011;51109;47.414;18.954;2024-01-15T03:44:37;90.38;;;41.63;;
64684;SDS011;51109;47.414;18.954;2024-01-15T03:47:02;87.85;;;39.70;;
64684;SDS011;51109;47.414;18.954;2024-01-15T03:49:29;90.97;;;40.45;;
64684;SDS011;51109;47.414;18.954;2024-01-15T03:51:55;87.50;;;37.97;;
64684;SDS011;51109;47.414;18.954;2024-01-15T03:54:21;88.07;;;40.67;;
64684;SDS011;51109;47.414;18.954;2024-01-15T03:56:46;88.57;;;41.20;;
64684;SDS011;51109;47.414;18.954;2024-01-15T03:59:12;93.65;;;39.88;;
64684;SDS011;51109;47.414;18.954;2024-01-15T04:01:38;91.53;;;41.85;;
64684;SDS011;51109;47.414;18.954;2024-01-15T04:04:04;94.28;;;40.72;;
64684;SDS011;51109;47.414;18.954;2024-01-15T04:06:30;93.75;;;39.20;;
64684;SDS011;51109;47.414;18.954;2024-01-15T04:08:55;92.80;;;42.75;;
64684;SDS011;51109;47.414;18.954;2024-01-15T04:11:21;88.15;;;38.67;;
64684;SDS011;51109;47.414;18.954;2024-01-15T04:13:47;90.00;;;39.08;;
64684;SDS011;51109;47.414;18.954;2024-01-15T04:16:13;92.45;;;38.90;;
64684;SDS011;51109;47.414;18.954;2024-01-15T04:18:39;93.60;;;39.15;;
64684;SDS011;51109;47.414;18.954;2024-01-15T04:21:05;82.45;;;37.60;;
64684;SDS011;51109;47.414;18.954;2024-01-15T04:23:32;83.88;;;39.53;;
64684;SDS011;51109;47.414;18.954;2024-01-15T04:25:58;100.22;;;42.70;;
64684;SDS011;51109;47.414;18.954;2024-01-15T04:28:24;98.03;;;41.67;;
64684;SDS011;51109;47.414;18.954;2024-01-15T04:30:49;92.35;;;40.20;;
64684;SDS011;51109;47.414;18.954;2024-01-15T04:33:15;90.95;;;40.67;;
64684;SDS011;51109;47.414;18.954;2024-01-15T04:35:41;89.43;;;39.00;;
64684;SDS011;51109;47.414;18.954;2024-01-15T04:38:07;89.13;;;42.53;;
64684;SDS011;51109;47.414;18.954;2024-01-15T04:40:33;92.55;;;39.92;;
64684;SDS011;51109;47.414;18.954;2024-01-15T04:42:58;90.10;;;40.55;;
64684;SDS011;51109;47.414;18.954;2024-01-15T04:45:24;90.97;;;40.92;;
64684;SDS011;51109;47.414;18.954;2024-01-15T04:47:53;103.10;;;44.08;;
64684;SDS011;51109;47.414;18.954;2024-01-15T04:50:22;98.93;;;46.53;;
64684;SDS011;51109;47.414;18.954;2024-01-15T04:52:47;89.20;;;38.00;;
64684;SDS011;51109;47.414;18.954;2024-01-15T04:55:13;95.03;;;41.25;;
64684;SDS011;51109;47.414;18.954;2024-01-15T04:57:39;97.15;;;44.22;;
64684;SDS011;51109;47.414;18.954;2024-01-15T05:00:05;113.50;;;49.58;;
64684;SDS011;51109;47.414;18.954;2024-01-15T05:02:31;98.50;;;42.97;;
64684;SDS011;51109;47.414;18.954;2024-01-15T05:04:57;99.75;;;46.08;;
64684;SDS011;51109;47.414;18.954;2024-01-15T05:07:22;104.00;;;46.13;;
64684;SDS011;51109;47.414;18.954;2024-01-15T05:09:48;100.03;;;48.50;;
64684;SDS011;51109;47.414;18.954;2024-01-15T05:12:14;107.18;;;50.70;;
64684;SDS011;51109;47.414;18.954;2024-01-15T05:14:40;103.05;;;47.40;;
64684;SDS011;51109;47.414;18.954;2024-01-15T05:17:05;102.20;;;49.30;;
64684;SDS011;51109;47.414;18.954;2024-01-15T05:19:31;100.05;;;46.78;;
64684;SDS011;51109;47.414;18.954;2024-01-15T05:21:57;104.05;;;46.67;;
64684;SDS011;51109;47.414;18.954;2024-01-15T05:24:22;88.28;;;41.28;;
64684;SDS011;51109;47.414;18.954;2024-01-15T05:26:49;88.85;;;38.58;;
64684;SDS011;51109;47.414;18.954;2024-01-15T05:29:14;93.95;;;42.50;;
64684;SDS011;51109;47.414;18.954;2024-01-15T05:31:40;104.00;;;48.60;;
64684;SDS011;51109;47.414;18.954;2024-01-15T05:34:09;105.07;;;47.22;;
64684;SDS011;51109;47.414;18.954;2024-01-15T05:36:35;108.03;;;47.75;;
64684;SDS011;51109;47.414;18.954;2024-01-15T05:39:00;102.63;;;44.88;;
64684;SDS011;51109;47.414;18.954;2024-01-15T05:41:26;97.50;;;41.83;;
64684;SDS011;51109;47.414;18.954;2024-01-15T05:43:52;105.47;;;45.58;;
64684;SDS011;51109;47.414;18.954;2024-01-15T05:46:18;94.97;;;43.17;;
64684;SDS011;51109;47.414;18.954;2024-01-15T05:48:43;97.47;;;45.05;;
64684;SDS011;51109;47.414;18.954;2024-01-15T05:51:09;94.22;;;40.95;;
64684;SDS011;51109;47.414;18.954;2024-01-15T05:53:35;89.45;;;39.03;;
64684;SDS011;51109;47.414;18.954;2024-01-15T05:56:03;98.00;;;44.53;;
64684;SDS011;51109;47.414;18.954;2024-01-15T05:58:29;104.28;;;42.63;;
64684;SDS011;51109;47.414;18.954;2024-01-15T06:00:55;102.53;;;43.53;;
64684;SDS011;51109;47.414;18.954;2024-01-15T06:03:21;102.80;;;43.72;;
64684;SDS011;51109;47.414;18.954;2024-01-15T06:05:46;97.50;;;43.88;;
64684;SDS011;51109;47.414;18.954;2024-01-15T06:08:13;96.22;;;40.40;;
64684;SDS011;51109;47.414;18.954;2024-01-15T06:10:40;81.90;;;39.70;;
64684;SDS011;51109;47.414;18.954;2024-01-15T06:13:05;87.60;;;39.53;;
64684;SDS011;51109;47.414;18.954;2024-01-15T06:15:31;89.65;;;40.63;;
64684;SDS011;51109;47.414;18.954;2024-01-15T06:17:57;100.15;;;42.83;;
64684;SDS011;51109;47.414;18.954;2024-01-15T06:20:22;95.10;;;41.08;;
64684;SDS011;51109;47.414;18.954;2024-01-15T06:22:48;102.47;;;45.10;;
64684;SDS011;51109;47.414;18.954;2024-01-15T06:25:14;96.57;;;45.05;;
64684;SDS011;51109;47.414;18.954;2024-01-15T06:27:40;101.90;;;44.08;;
64684;SDS011;51109;47.414;18.954;2024-01-15T06:30:06;100.32;;;46.15;;
64684;SDS011;51109;47.414;18.954;2024-01-15T06:32:32;95.55;;;44.95;;
64684;SDS011;51109;47.414;18.954;2024-01-15T06:34:58;92.00;;;43.70;;
64684;SDS011;51109;47.414;18.954;2024-01-15T06:37:24;97.13;;;45.90;;
64684;SDS011;51109;47.414;18.954;2024-01-15T06:39:49;98.78;;;44.45;;
64684;SDS011;51109;47.414;18.954;2024-01-15T06:42:15;97.75;;;44.00;;
64684;SDS011;51109;47.414;18.954;2024-01-15T06:44:41;94.55;;;43.88;;
64684;SDS011;51109;47.414;18.954;2024-01-15T06:47:07;99.57;;;43.85;;
64684;SDS011;51109;47.414;18.954;2024-01-15T06:49:32;89.72;;;40.60;;
64684;SDS011;51109;47.414;18.954;2024-01-15T06:51:58;92.68;;;44.55;;
64684;SDS011;51109;47.414;18.954;2024-01-15T06:54:24;94.18;;;41.28;;
64684;SDS011;51109;47.414;18.954;2024-01-15T06:56:51;98.88;;;43.38;;
64684;SDS011;51109;47.414;18.954;2024-01-15T06:59:17;98.70;;;43.95;;
64684;SDS011;51109;47.414;18.954;2024-01-15T07:01:43;102.22;;;43.53;;
64684;SDS011;51109;47.414;18.954;2024-01-15T07:04:09;99.22;;;44.15;;
64684;SDS011;51109;47.414;18.954;2024-01-15T07:06:35;93.13;;;42.88;;
64684;SDS011;51109;47.414;18.954;2024-01-15T07:09:00;92.72;;;42.63;;
64684;SDS011;51109;47.414;18.954;2024-01-15T07:11:26;105.93;;;45.95;;
64684;SDS011;51109;47.414;18.954;2024-01-15T07:13:52;97.50;;;45.45;;
64684;SDS011;51109;47.414;18.954;2024-01-15T07:16:18;92.20;;;41.15;;
64684;SDS011;51109;47.414;18.954;2024-01-15T07:18:43;102.43;;;47.42;;
64684;SDS011;51109;47.414;18.954;2024-01-15T07:21:09;109.93;;;48.90;;
64684;SDS011;51109;47.414;18.954;2024-01-15T07:23:35;121.38;;;51.80;;
64684;SDS011;51109;47.414;18.954;2024-01-15T07:26:01;102.15;;;47.05;;
64684;SDS011;51109;47.414;18.954;2024-01-15T07:28:28;115.80;;;50.53;;
64684;SDS011;51109;47.414;18.954;2024-01-15T07:30:54;102.78;;;45.95;;
64684;SDS011;51109;47.414;18.954;2024-01-15T07:33:20;102.25;;;46.20;;
64684;SDS011;51109;47.414;18.954;2024-01-15T07:35:46;95.82;;;43.17;;
64684;SDS011;51109;47.414;18.954;2024-01-15T07:38:12;91.85;;;40.75;;
64684;SDS011;51109;47.414;18.954;2024-01-15T07:40:37;91.20;;;43.45;;
64684;SDS011;51109;47.414;18.954;2024-01-15T07:43:03;81.70;;;37.33;;
64684;SDS011;51109;47.414;18.954;2024-01-15T07:45:29;63.88;;;28.48;;
64684;SDS011;51109;47.414;18.954;2024-01-15T07:47:55;61.00;;;28.55;;
64684;SDS011;51109;47.414;18.954;2024-01-15T07:50:21;61.38;;;28.77;;
64684;SDS011;51109;47.414;18.954;2024-01-15T07:52:47;57.75;;;26.40;;
64684;SDS011;51109;47.414;18.954;2024-01-15T07:55:13;50.47;;;26.13;;
64684;SDS011;51109;47.414;18.954;2024-01-15T07:57:39;58.40;;;25.70;;
64684;SDS011;51109;47.414;18.954;2024-01-15T08:00:05;58.53;;;28.00;;
64684;SDS011;51109;47.414;18.954;2024-01-15T08:02:32;56.70;;;27.45;;
64684;SDS011;51109;47.414;18.954;2024-01-15T08:04:58;52.90;;;26.00;;
64684;SDS011;51109;47.414;18.954;2024-01-15T08:07:24;51.75;;;24.70;;
64684;SDS011;51109;47.414;18.954;2024-01-15T08:09:51;49.97;;;24.65;;
64684;SDS011;51109;47.414;18.954;2024-01-15T08:12:17;54.17;;;24.08;;
64684;SDS011;51109;47.414;18.954;2024-01-15T08:14:43;49.83;;;23.42;;
64684;SDS011;51109;47.414;18.954;2024-01-15T08:17:10;41.90;;;19.52;;
64684;SDS011;51109;47.414;18.954;2024-01-15T08:19:36;38.60;;;17.83;;
64684;SDS011;51109;47.414;18.954;2024-01-15T08:22:02;48.17;;;23.25;;
64684;SDS011;51109;47.414;18.954;2024-01-15T08:24:28;43.03;;;20.70;;
64684;SDS011;51109;47.414;18.954;2024-01-15T08:26:54;40.95;;;20.75;;
64684;SDS011;51109;47.414;18.954;2024-01-15T08:29:21;40.28;;;21.73;;
64684;SDS011;51109;47.414;18.954;2024-01-15T08:31:47;50.75;;;23.35;;
64684;SDS011;51109;47.414;18.954;2024-01-15T08:34:13;50.15;;;24.52;;
64684;SDS011;51109;47.414;18.954;2024-01-15T08:36:39;46.58;;;21.98;;
64684;SDS011;51109;47.414;18.954;2024-01-15T08:39:06;45.17;;;22.52;;
64684;SDS011;51109;47.414;18.954;2024-01-15T08:41:32;46.03;;;23.38;;
64684;SDS011;51109;47.414;18.954;2024-01-15T08:43:58;40.75;;;20.73;;
64684;SDS011;51109;47.414;18.954;2024-01-15T08:46:24;44.28;;;21.65;;
64684;SDS011;51109;47.414;18.954;2024-01-15T08:48:50;42.88;;;21.95;;
64684;SDS011;51109;47.414;18.954;2024-01-15T08:51:16;35.33;;;18.45;;
64684;SDS011;51109;47.414;18.954;2024-01-15T08:53:44;44.63;;;22.60;;
64684;SDS011;51109;47.414;18.954;2024-01-15T08:56:09;44.28;;;23.58;;
64684;SDS011;51109;47.414;18.954;2024-01-15T08:58:36;39.30;;;20.27;;
64684;SDS011;51109;47.414;18.954;2024-01-15T09:01:01;38.20;;;20.08;;
64684;SDS011;51109;47.414;18.954;2024-01-15T09:03:27;39.20;;;19.08;;
64684;SDS011;51109;47.414;18.954;2024-01-15T09:05:53;35.45;;;18.58;;
64684;SDS011;51109;47.414;18.954;2024-01-15T09:08:19;39.47;;;19.67;;
64684;SDS011;51109;47.414;18.954;2024-01-15T09:10:45;36.33;;;17.20;;
64684;SDS011;51109;47.414;18.954;2024-01-15T09:13:11;34.40;;;18.45;;
64684;SDS011;51109;47.414;18.954;2024-01-15T09:15:37;32.88;;;16.83;;
64684;SDS011;51109;47.414;18.954;2024-01-15T09:18:03;36.30;;;17.27;;
64684;SDS011;51109;47.414;18.954;2024-01-15T09:20:30;34.47;;;18.55;;
64684;SDS011;51109;47.414;18.954;2024-01-15T09:22:56;34.20;;;16.75;;
64684;SDS011;51109;47.414;18.954;2024-01-15T09:25:22;32.45;;;16.35;;
64684;SDS011;51109;47.414;18.954;2024-01-15T09:27:47;33.05;;;16.58;;
64684;SDS011;51109;47.414;18.954;2024-01-15T09:30:13;31.05;;;15.25;;
64684;SDS011;51109;47.414;18.954;2024-01-15T09:32:39;32.80;;;16.10;;
64684;SDS011;51109;47.414;18.954;2024-01-15T09:35:05;31.83;;;16.98;;
64684;SDS011;51109;47.414;18.954;2024-01-15T09:37:31;30.02;;;15.20;;
64684;SDS011;51109;47.414;18.954;2024-01-15T09:39:57;17.48;;;8.55;;
64684;SDS011;51109;47.414;18.954;2024-01-15T09:42:26;25.33;;;14.02;;
64684;SDS011;51109;47.414;18.954;2024-01-15T09:44:53;29.10;;;13.77;;
64684;SDS011;51109;47.414;18.954;2024-01-15T09:47:20;26.02;;;13.45;;
64684;SDS011;51109;47.414;18.954;2024-01-15T09:49:47;27.40;;;12.85;;
64684;SDS011;51109;47.414;18.954;2024-01-15T09:52:13;24.25;;;13.02;;
64684;SDS011;51109;47.414;18.954;2024-01-15T09:54:43;22.70;;;11.45;;
64684;SDS011;51109;47.414;18.954;2024-01-15T09:57:09;23.77;;;12.25;;
64684;SDS011;51109;47.414;18.954;2024-01-15T09:59:36;23.33;;;12.43;;
64684;SDS011;51109;47.414;18.954;2024-01-15T10:02:03;23.85;;;12.57;;
64684;SDS011;51109;47.414;18.954;2024-01-15T10:04:31;24.52;;;12.40;;
64684;SDS011;51109;47.414;18.954;2024-01-15T10:06:57;23.60;;;12.38;;
64684;SDS011;51109;47.414;18.954;2024-01-15T10:09:26;29.17;;;14.75;;
64684;SDS011;51109;47.414;18.954;2024-01-15T10:11:53;18.60;;;10.70;;
64684;SDS011;51109;47.414;18.954;2024-01-15T10:14:19;22.00;;;12.02;;
64684;SDS011;51109;47.414;18.954;2024-01-15T10:16:45;21.92;;;11.63;;
64684;SDS011;51109;47.414;18.954;2024-01-15T10:19:10;18.25;;;9.98;;
64684;SDS011;51109;47.414;18.954;2024-01-15T10:21:36;21.73;;;10.63;;
64684;SDS011;51109;47.414;18.954;2024-01-15T10:24:03;18.17;;;10.45;;
64684;SDS011;51109;47.414;18.954;2024-01-15T10:26:30;18.58;;;10.25;;
64684;SDS011;51109;47.414;18.954;2024-01-15T10:28:57;17.20;;;9.63;;
64684;SDS011;51109;47.414;18.954;2024-01-15T10:31:25;14.80;;;8.15;;
64684;SDS011;51109;47.414;18.954;2024-01-15T10:33:52;14.30;;;9.15;;
64684;SDS011;51109;47.414;18.954;2024-01-15T10:36:18;29.23;;;12.05;;
64684;SDS011;51109;47.414;18.954;2024-01-15T10:38:44;25.00;;;10.57;;
64684;SDS011;51109;47.414;18.954;2024-01-15T10:41:10;16.38;;;8.52;;
64684;SDS011;51109;47.414;18.954;2024-01-15T10:43:37;16.23;;;9.02;;
64684;SDS011;51109;47.414;18.954;2024-01-15T10:46:03;15.00;;;8.07;;
64684;SDS011;51109;47.414;18.954;2024-01-15T10:48:29;15.77;;;8.60;;
64684;SDS011;51109;47.414;18.954;2024-01-15T10:50:57;13.82;;;7.82;;
64684;SDS011;51109;47.414;18.954;2024-01-15T10:53:26;13.63;;;7.70;;
64684;SDS011;51109;47.414;18.954;2024-01-15T10:55:53;11.93;;;7.20;;
64684;SDS011;51109;47.414;18.954;2024-01-15T10:58:20;14.02;;;7.38;;
64684;SDS011;51109;47.414;18.954;2024-01-15T11:00:48;11.15;;;6.55;;
64684;SDS011;51109;47.414;18.954;2024-01-15T11:03:14;11.25;;;7.53;;
64684;SDS011;51109;47.414;18.954;2024-01-15T11:05:42;13.30;;;6.50;;
64684;SDS011;51109;47.414;18.954;2024-01-15T11:08:08;11.70;;;6.28;;
64684;SDS011;51109;47.414;18.954;2024-01-15T11:15:59;12.85;;;7.10;;
64684;SDS011;51109;47.414;18.954;2024-01-15T11:18:28;12.07;;;6.85;;
64684;SDS011;51109;47.414;18.954;2024-01-15T11:23:42;25.60;;;12.45;;
64684;SDS011;51109;47.414;18.954;2024-01-15T11:29:01;13.65;;;6.53;;
64684;SDS011;51109;47.414;18.954;2024-01-15T11:31:29;14.02;;;5.90;;
64684;SDS011;51109;47.414;18.954;2024-01-15T11:34:15;12.00;;;6.28;;
64684;SDS011;51109;47.414;18.954;2024-01-15T11:41:58;11.63;;;6.95;;
64684;SDS011;51109;47.414;18.954;2024-01-15T11:44:28;8.23;;;5.88;;
64684;SDS011;51109;47.414;18.954;2024-01-15T11:46:59;5.32;;;2.70;;
64684;SDS011;51109;47.414;18.954;2024-01-15T11:52:05;12.65;;;6.53;;
64684;SDS011;51109;47.414;18.954;2024-01-15T11:54:33;13.07;;;6.47;;
64684;SDS011;51109;47.414;18.954;2024-01-15T11:57:04;11.00;;;6.20;;
64684;SDS011;51109;47.414;18.954;2024-01-15T11:59:34;11.80;;;6.13;;
64684;SDS011;51109;47.414;18.954;2024-01-15T12:02:01;11.00;;;6.28;;
64684;SDS011;51109;47.414;18.954;2024-01-15T12:04:28;11.32;;;5.63;;
64684;SDS011;51109;47.414;18.954;2024-01-15T12:06:54;9.90;;;5.35;;
64684;SDS011;51109;47.414;18.954;2024-01-15T12:09:19;8.45;;;4.53;;
64684;SDS011;51109;47.414;18.954;2024-01-15T12:11:51;7.32;;;4.13;;
64684;SDS011;51109;47.414;18.954;2024-01-15T12:14:26;6.75;;;4.90;;
64684;SDS011;51109;47.414;18.954;2024-01-15T12:16:54;5.45;;;4.00;;
64684;SDS011;51109;47.414;18.954;2024-01-15T12:19:20;9.43;;;3.80;;
64684;SDS011;51109;47.414;18.954;2024-01-15T12:21:46;5.18;;;3.47;;
64684;SDS011;51109;47.414;18.954;2024-01-15T12:24:13;6.50;;;4.25;;
64684;SDS011;51109;47.414;18.954;2024-01-15T12:26:38;7.65;;;3.85;;
64684;SDS011;51109;47.414;18.954;2024-01-15T12:29:06;5.35;;;3.42;;
64684;SDS011;51109;47.414;18.954;2024-01-15T12:31:32;8.32;;;3.25;;
64684;SDS011;51109;47.414;18.954;2024-01-15T12:33:58;9.27;;;3.60;;
64684;SDS011;51109;47.414;18.954;2024-01-15T12:36:24;8.32;;;4.43;;
64684;SDS011;51109;47.414;18.954;2024-01-15T12:38:50;7.75;;;3.20;;
64684;SDS011;51109;47.414;18.954;2024-01-15T12:41:16;8.35;;;4.22;;
64684;SDS011;51109;47.414;18.954;2024-01-15T12:43:42;7.47;;;4.00;;
64684;SDS011;51109;47.414;18.954;2024-01-15T12:46:08;9.68;;;5.05;;
64684;SDS011;51109;47.414;18.954;2024-01-15T12:48:34;8.10;;;4.13;;
64684;SDS011;51109;47.414;18.954;2024-01-15T12:51:00;7.47;;;4.15;;
64684;SDS011;51109;47.414;18.954;2024-01-15T12:53:26;10.70;;;4.57;;
64684;SDS011;51109;47.414;18.954;2024-01-15T12:55:52;9.27;;;5.40;;
64684;SDS011;51109;47.414;18.954;2024-01-15T12:58:18;6.80;;;4.38;;
64684;SDS011;51109;47.414;18.954;2024-01-15T13:00:44;6.00;;;4.35;;
64684;SDS011;51109;47.414;18.954;2024-01-15T13:03:10;7.40;;;4.72;;
64684;SDS011;51109;47.414;18.954;2024-01-15T13:05:35;8.23;;;4.22;;
64684;SDS011;51109;47.414;18.954;2024-01-15T13:08:02;7.57;;;4.38;;
64684;SDS011;51109;47.414;18.954;2024-01-15T13:10:28;6.95;;;4.22;;
64684;SDS011;51109;47.414;18.954;2024-01-15T13:12:55;9.45;;;4.57;;
64684;SDS011;51109;47.414;18.954;2024-01-15T13:15:21;9.35;;;4.30;;
64684;SDS011;51109;47.414;18.954;2024-01-15T13:17:47;7.78;;;3.15;;
64684;SDS011;51109;47.414;18.954;2024-01-15T13:20:12;9.20;;;4.60;;
64684;SDS011;51109;47.414;18.954;2024-01-15T13:22:38;10.30;;;4.88;;
64684;SDS011;51109;47.414;18.954;2024-01-15T13:25:05;7.03;;;4.28;;
64684;SDS011;51109;47.414;18.954;2024-01-15T13:27:33;13.32;;;4.65;;
64684;SDS011;51109;47.414;18.954;2024-01-15T13:30:02;14.40;;;6.22;;
64684;SDS011;51109;47.414;18.954;2024-01-15T13:32:28;6.05;;;3.90;;
64684;SDS011;51109;47.414;18.954;2024-01-15T13:34:55;7.00;;;4.35;;
64684;SDS011;51109;47.414;18.954;2024-01-15T13:37:22;6.13;;;3.70;;
64684;SDS011;51109;47.414;18.954;2024-01-15T13:39:50;5.32;;;3.40;;
64684;SDS011;51109;47.414;18.954;2024-01-15T13:42:17;8.15;;;4.15;;
64684;SDS011;51109;47.414;18.954;2024-01-15T13:44:43;9.75;;;3.70;;
64684;SDS011;51109;47.414;18.954;2024-01-15T13:47:09;7.10;;;4.20;;
64684;SDS011;51109;47.414;18.954;2024-01-15T13:49:35;10.88;;;5.20;;
64684;SDS011;51109;47.414;18.954;2024-01-15T13:52:02;8.27;;;4.57;;
64684;SDS011;51109;47.414;18.954;2024-01-15T13:54:29;19.00;;;7.43;;
64684;SDS011;51109;47.414;18.954;2024-01-15T13:56:55;25.27;;;10.30;;
64684;SDS011;51109;47.414;18.954;2024-01-15T13:59:21;24.00;;;9.38;;
64684;SDS011;51109;47.414;18.954;2024-01-15T14:01:48;41.60;;;13.20;;
64684;SDS011;51109;47.414;18.954;2024-01-15T14:04:14;12.05;;;5.85;;
64684;SDS011;51109;47.414;18.954;2024-01-15T14:06:39;9.00;;;4.53;;
64684;SDS011;51109;47.414;18.954;2024-01-15T14:09:06;19.45;;;6.15;;
64684;SDS011;51109;47.414;18.954;2024-01-15T14:11:35;17.73;;;6.53;;
64684;SDS011;51109;47.414;18.954;2024-01-15T14:14:02;16.08;;;6.13;;
64684;SDS011;51109;47.414;18.954;2024-01-15T14:16:28;11.00;;;5.15;;
64684;SDS011;51109;47.414;18.954;2024-01-15T14:18:53;14.38;;;5.20;;
64684;SDS011;51109;47.414;18.954;2024-01-15T14:21:19;17.58;;;5.90;;
64684;SDS011;51109;47.414;18.954;2024-01-15T14:23:45;12.52;;;6.70;;